sensor_id;sensor_type;location;lat;lon;timestamp;temperature;humidity
1063;DHT22;520;50.932;6.962;2023-05-02T00:01:37;14.60;99.90
1063;DHT22;520;50.932;6.962;2023-05-02T00:04:08;14.60;99.90
1063;DHT22;520;50.932;6.962;2023-05-02T00:06:41;14.60;99.90
1063;DHT22;520;50.932;6.962;2023-05-02T00:09:12;14.60;99.90
1063;DHT22;520;50.932;6.962;2023-05-02T00:11:42;14.60;99.90
1063;DHT22;520;50.932;6.962;2023-05-02T00:14:34;14.60;99.90
1063;DHT22;520;50.932;6.962;2023-05-02T00:17:09;14.60;99.90
1063;DHT22;520;50.932;6.962;2023-05-02T00:19:50;14.60;99.90
1063;DHT22;520;50.932;6.962;2023-05-02T00:22:29;14.60;99.90
1063;DHT22;520;50.932;6.962;2023-05-02T00:25:05;14.50;99.90
1063;DHT22;520;50.932;6.962;2023-05-02T00:27:36;14.50;99.90
1063;DHT22;520;50.932;6.962;2023-05-02T00:30:18;14.40;99.90
1063;DHT22;520;50.932;6.962;2023-05-02T00:32:51;14.40;99.90
1063;DHT22;520;50.932;6.962;2023-05-02T00:35:22;14.30;99.90
1063;DHT22;520;50.932;6.962;2023-05-02T00:37:51;14.30;99.90
1063;DHT22;520;50.932;6.962;2023-05-02T00:40:19;14.20;99.90
1063;DHT22;520;50.932;6.962;2023-05-02T00:42:47;14.20;99.90
1063;DHT22;520;50.932;6.962;2023-05-02T00:45:17;14.20;99.90
1063;DHT22;520;50.932;6.962;2023-05-02T00:47:46;14.20;99.90
1063;DHT22;520;50.932;6.962;2023-05-02T00:50:25;14.10;99.90
1063;DHT22;520;50.932;6.962;2023-05-02T00:52:59;14.00;99.90
1063;DHT22;520;50.932;6.962;2023-05-02T00:55:28;14.10;99.90
1063;DHT22;520;50.932;6.962;2023-05-02T00:58:06;14.00;99.90
1063;DHT22;520;50.932;6.962;2023-05-02T01:04:01;14.00;99.90
1063;DHT22;520;50.932;6.962;2023-05-02T01:09:47;14.00;99.90
1063;DHT22;520;50.932;6.962;2023-05-02T01:12:22;14.00;99.90
1063;DHT22;520;50.932;6.962;2023-05-02T01:14:53;13.90;99.90
1063;DHT22;520;50.932;6.962;2023-05-02T01:17:24;13.90;99.90
1063;DHT22;520;50.932;6.962;2023-05-02T01:19:55;13.80;99.90
1063;DHT22;520;50.932;6.962;2023-05-02T01:22:25;13.80;99.90
1063;DHT22;520;50.932;6.962;2023-05-02T01:30:33;13.70;99.90
1063;DHT22;520;50.932;6.962;2023-05-02T01:33:03;13.70;99.90
1063;DHT22;520;50.932;6.962;2023-05-02T01:35:32;13.70;99.90
1063;DHT22;520;50.932;6.962;2023-05-02T01:38:01;13.70;99.90
1063;DHT22;520;50.932;6.962;2023-05-02T01:40:29;13.70;99.90
1063;DHT22;520;50.932;6.962;2023-05-02T01:42:56;13.70;99.90
1063;DHT22;520;50.932;6.962;2023-05-02T01:45:24;13.70;99.90
1063;DHT22;520;50.932;6.962;2023-05-02T01:47:53;13.60;99.90
1063;DHT22;520;50.932;6.962;2023-05-02T01:50:22;13.60;99.90
1063;DHT22;520;50.932;6.962;2023-05-02T01:52:51;13.50;99.90
1063;DHT22;520;50.932;6.962;2023-05-02T01:55:19;13.60;99.90
1063;DHT22;520;50.932;6.962;2023-05-02T01:57:46;13.60;99.90
1063;DHT22;520;50.932;6.962;2023-05-02T02:00:16;13.50;99.90
1063;DHT22;520;50.932;6.962;2023-05-02T02:02:45;13.40;99.90
1063;DHT22;520;50.932;6.962;2023-05-02T02:05:13;13.40;99.90
1063;DHT22;520;50.932;6.962;2023-05-02T02:07:40;13.40;99.90
1063;DHT22;520;50.932;6.962;2023-05-02T02:10:07;13.40;99.90
1063;DHT22;520;50.932;6.962;2023-05-02T02:13:11;13.40;99.90
1063;DHT22;520;50.932;6.962;2023-05-02T02:15:40;13.40;99.90
1063;DHT22;520;50.932;6.962;2023-05-02T02:18:12;13.40;99.90
1063;DHT22;520;50.932;6.962;2023-05-02T02:20:42;13.40;99.90
1063;DHT22;520;50.932;6.962;2023-05-02T02:23:11;13.40;99.90
1063;DHT22;520;50.932;6.962;2023-05-02T02:25:41;13.40;99.90
1063;DHT22;520;50.932;6.962;2023-05-02T02:28:08;13.40;99.90
1063;DHT22;520;50.932;6.962;2023-05-02T02:30:35;13.40;99.90
1063;DHT22;520;50.932;6.962;2023-05-02T02:33:02;13.30;99.90
1063;DHT22;520;50.932;6.962;2023-05-02T02:35:33;13.30;99.90
1063;DHT22;520;50.932;6.962;2023-05-02T02:38:10;13.30;99.90
1063;DHT22;520;50.932;6.962;2023-05-02T02:40:58;13.20;99.90
1063;DHT22;520;50.932;6.962;2023-05-02T02:46:26;13.20;99.90
1063;DHT22;520;50.932;6.962;2023-05-02T02:49:29;13.20;99.90
1063;DHT22;520;50.932;6.962;2023-05-02T02:52:07;13.30;99.90
1063;DHT22;520;50.932;6.962;2023-05-02T02:54:49;13.30;99.90
1063;DHT22;520;50.932;6.962;2023-05-02T02:57:50;13.30;99.90
1063;DHT22;520;50.932;6.962;2023-05-02T03:00:24;13.30;99.90
1063;DHT22;520;50.932;6.962;2023-05-02T03:02:53;13.20;99.90
1063;DHT22;520;50.932;6.962;2023-05-02T03:05:21;13.20;99.90
1063;DHT22;520;50.932;6.962;2023-05-02T03:07:48;13.20;99.90
1063;DHT22;520;50.932;6.962;2023-05-02T03:10:16;13.20;99.90
1063;DHT22;520;50.932;6.962;2023-05-02T03:12:43;13.20;99.90
1063;DHT22;520;50.932;6.962;2023-05-02T03:16:02;13.20;99.90
1063;DHT22;520;50.932;6.962;2023-05-02T03:18:31;13.20;99.90
1063;DHT22;520;50.932;6.962;2023-05-02T03:20:58;13.20;99.90
1063;DHT22;520;50.932;6.962;2023-05-02T03:23:26;13.20;99.90
1063;DHT22;520;50.932;6.962;2023-05-02T03:25:53;13.20;99.90
1063;DHT22;520;50.932;6.962;2023-05-02T03:28:19;13.20;99.90
1063;DHT22;520;50.932;6.962;2023-05-02T03:30:46;13.30;99.90
1063;DHT22;520;50.932;6.962;2023-05-02T03:33:13;13.30;99.90
1063;DHT22;520;50.932;6.962;2023-05-02T03:35:40;13.30;99.90
1063;DHT22;520;50.932;6.962;2023-05-02T03:38:08;13.30;99.90
1063;DHT22;520;50.932;6.962;2023-05-02T03:40:34;13.30;99.90
1063;DHT22;520;50.932;6.962;2023-05-02T03:43:02;13.30;99.90
1063;DHT22;520;50.932;6.962;2023-05-02T03:45:28;13.30;99.90
1063;DHT22;520;50.932;6.962;2023-05-02T03:47:55;13.30;99.90
1063;DHT22;520;50.932;6.962;2023-05-02T03:50:22;13.30;99.90
1063;DHT22;520;50.932;6.962;2023-05-02T03:52:49;13.30;99.90
1063;DHT22;520;50.932;6.962;2023-05-02T03:55:16;13.20;99.90
1063;DHT22;520;50.932;6.962;2023-05-02T03:57:43;13.20;99.90
1063;DHT22;520;50.932;6.962;2023-05-02T04:00:10;13.20;99.90
1063;DHT22;520;50.932;6.962;2023-05-02T04:02:37;13.30;99.90
1063;DHT22;520;50.932;6.962;2023-05-02T04:05:04;13.30;99.90
1063;DHT22;520;50.932;6.962;2023-05-02T04:07:31;13.30;99.90
1063;DHT22;520;50.932;6.962;2023-05-02T04:09:58;13.30;99.90
1063;DHT22;520;50.932;6.962;2023-05-02T04:12:25;13.20;99.90
1063;DHT22;520;50.932;6.962;2023-05-02T04:14:52;13.30;99.90
1063;DHT22;520;50.932;6.962;2023-05-02T04:17:20;13.30;99.90
1063;DHT22;520;50.932;6.962;2023-05-02T04:19:47;13.30;99.90
1063;DHT22;520;50.932;6.962;2023-05-02T04:22:14;13.30;99.90
1063;DHT22;520;50.932;6.962;2023-05-02T04:24:41;13.30;99.90
1063;DHT22;520;50.932;6.962;2023-05-02T04:27:08;13.30;99.90
1063;DHT22;520;50.932;6.962;2023-05-02T04:29:35;13.30;99.90
1063;DHT22;520;50.932;6.962;2023-05-02T04:32:02;13.30;99.90
1063;DHT22;520;50.932;6.962;2023-05-02T04:34:28;13.30;99.90
1063;DHT22;520;50.932;6.962;2023-05-02T04:36:55;13.30;99.90
1063;DHT22;520;50.932;6.962;2023-05-02T04:39:22;13.20;99.90
1063;DHT22;520;50.932;6.962;2023-05-02T04:41:49;13.30;99.90
1063;DHT22;520;50.932;6.962;2023-05-02T04:44:19;13.20;99.90
1063;DHT22;520;50.932;6.962;2023-05-02T04:46:46;13.20;99.90
1063;DHT22;520;50.932;6.962;2023-05-02T04:49:13;13.20;99.90
1063;DHT22;520;50.932;6.962;2023-05-02T04:51:40;13.20;99.90
1063;DHT22;520;50.932;6.962;2023-05-02T04:54:07;13.20;99.90
1063;DHT22;520;50.932;6.962;2023-05-02T04:56:35;13.20;99.90
1063;DHT22;520;50.932;6.962;2023-05-02T04:59:01;13.20;99.90
1063;DHT22;520;50.932;6.962;2023-05-02T05:01:28;13.30;99.90
1063;DHT22;520;50.932;6.962;2023-05-02T05:03:55;13.30;99.90
1063;DHT22;520;50.932;6.962;2023-05-02T05:06:22;13.20;99.90
1063;DHT22;520;50.932;6.962;2023-05-02T05:08:49;13.20;99.90
1063;DHT22;520;50.932;6.962;2023-05-02T05:11:17;13.30;99.90
1063;DHT22;520;50.932;6.962;2023-05-02T05:13:44;13.30;99.90
1063;DHT22;520;50.932;6.962;2023-05-02T05:16:11;13.20;99.90
1063;DHT22;520;50.932;6.962;2023-05-02T05:18:38;13.20;99.90
1063;DHT22;520;50.932;6.962;2023-05-02T05:21:07;13.30;99.90
1063;DHT22;520;50.932;6.962;2023-05-02T05:23:35;13.30;99.90
1063;DHT22;520;50.932;6.962;2023-05-02T05:26:09;13.30;99.90
1063;DHT22;520;50.932;6.962;2023-05-02T05:28:37;13.30;99.90
1063;DHT22;520;50.932;6.962;2023-05-02T05:31:09;13.30;99.90
1063;DHT22;520;50.932;6.962;2023-05-02T05:33:40;13.30;99.90
1063;DHT22;520;50.932;6.962;2023-05-02T05:36:08;13.30;99.90
1063;DHT22;520;50.932;6.962;2023-05-02T05:38:35;13.40;99.90
1063;DHT22;520;50.932;6.962;2023-05-02T05:41:03;13.40;99.90
1063;DHT22;520;50.932;6.962;2023-05-02T05:43:31;13.40;99.90
1063;DHT22;520;50.932;6.962;2023-05-02T05:45:58;13.40;99.90
1063;DHT22;520;50.932;6.962;2023-05-02T05:48:25;13.30;99.90
1063;DHT22;520;50.932;6.962;2023-05-02T05:50:53;13.30;99.90
1063;DHT22;520;50.932;6.962;2023-05-02T05:53:20;13.30;99.90
1063;DHT22;520;50.932;6.962;2023-05-02T05:55:47;13.30;99.90
1063;DHT22;520;50.932;6.962;2023-05-02T05:58:14;13.30;99.90
1063;DHT22;520;50.932;6.962;2023-05-02T06:00:40;13.30;99.90
1063;DHT22;520;50.932;6.962;2023-05-02T06:03:08;13.30;99.90
1063;DHT22;520;50.932;6.962;2023-05-02T06:05:35;13.30;99.90
1063;DHT22;520;50.932;6.962;2023-05-02T06:08:02;13.40;99.90
1063;DHT22;520;50.932;6.962;2023-05-02T06:10:33;13.40;99.90
1063;DHT22;520;50.932;6.962;2023-05-02T06:13:10;13.40;99.90
1063;DHT22;520;50.932;6.962;2023-05-02T06:15:59;13.40;99.90
1063;DHT22;520;50.932;6.962;2023-05-02T06:18:30;13.40;99.90
1063;DHT22;520;50.932;6.962;2023-05-02T06:21:12;13.30;99.90
1063;DHT22;520;50.932;6.962;2023-05-02T06:23:39;13.30;99.90
1063;DHT22;520;50.932;6.962;2023-05-02T06:26:16;13.30;99.90
1063;DHT22;520;50.932;6.962;2023-05-02T06:28:54;13.30;99.90
1063;DHT22;520;50.932;6.962;2023-05-02T06:31:37;13.20;99.90
1063;DHT22;520;50.932;6.962;2023-05-02T06:34:13;13.10;99.90
1063;DHT22;520;50.932;6.962;2023-05-02T06:36:39;13.20;99.90
1063;DHT22;520;50.932;6.962;2023-05-02T06:39:17;13.30;99.90
1063;DHT22;520;50.932;6.962;2023-05-02T06:41:57;13.30;99.90
1063;DHT22;520;50.932;6.962;2023-05-02T06:44:24;13.20;99.90
1063;DHT22;520;50.932;6.962;2023-05-02T06:46:51;13.20;99.90
1063;DHT22;520;50.932;6.962;2023-05-02T06:49:29;13.20;99.90
1063;DHT22;520;50.932;6.962;2023-05-02T06:52:05;13.10;99.90
1063;DHT22;520;50.932;6.962;2023-05-02T06:54:34;13.10;99.90
1063;DHT22;520;50.932;6.962;2023-05-02T06:57:12;13.10;99.90
1063;DHT22;520;50.932;6.962;2023-05-02T06:59:50;13.10;99.90
1063;DHT22;520;50.932;6.962;2023-05-02T07:02:30;13.10;99.90
1063;DHT22;520;50.932;6.962;2023-05-02T07:05:14;13.10;99.90
1063;DHT22;520;50.932;6.962;2023-05-02T07:08:00;13.20;99.90
1063;DHT22;520;50.932;6.962;2023-05-02T07:10:37;13.30;99.90
1063;DHT22;520;50.932;6.962;2023-05-02T07:13:10;13.30;99.90
1063;DHT22;520;50.932;6.962;2023-05-02T07:15:43;13.40;99.90
1063;DHT22;520;50.932;6.962;2023-05-02T07:18:20;13.30;99.90
1063;DHT22;520;50.932;6.962;2023-05-02T07:21:03;13.40;99.90
1063;DHT22;520;50.932;6.962;2023-05-02T07:23:39;13.40;99.90
1063;DHT22;520;50.932;6.962;2023-05-02T07:26:11;13.50;99.90
1063;DHT22;520;50.932;6.962;2023-05-02T07:28:38;13.50;99.90
1063;DHT22;520;50.932;6.962;2023-05-02T07:31:12;13.50;99.90
1063;DHT22;520;50.932;6.962;2023-05-02T07:33:54;13.60;99.90
1063;DHT22;520;50.932;6.962;2023-05-02T07:36:35;13.60;99.90
1063;DHT22;520;50.932;6.962;2023-05-02T07:39:02;13.50;99.90
1063;DHT22;520;50.932;6.962;2023-05-02T07:41:41;13.50;99.90
1063;DHT22;520;50.932;6.962;2023-05-02T07:44:23;13.50;99.90
1063;DHT22;520;50.932;6.962;2023-05-02T07:46:56;13.50;99.90
1063;DHT22;520;50.932;6.962;2023-05-02T07:49:35;13.60;99.90
1063;DHT22;520;50.932;6.962;2023-05-02T07:52:18;13.50;99.90
1063;DHT22;520;50.932;6.962;2023-05-02T07:55:00;13.60;99.90
1063;DHT22;520;50.932;6.962;2023-05-02T07:57:39;13.90;99.90
1063;DHT22;520;50.932;6.962;2023-05-02T08:00:10;13.70;99.90
1063;DHT22;520;50.932;6.962;2023-05-02T08:02:42;13.50;99.90
1063;DHT22;520;50.932;6.962;2023-05-02T08:05:14;13.60;99.90
1063;DHT22;520;50.932;6.962;2023-05-02T08:07:50;13.70;99.90
1063;DHT22;520;50.932;6.962;2023-05-02T08:10:27;13.70;99.90
1063;DHT22;520;50.932;6.962;2023-05-02T08:12:55;14.00;99.90
1063;DHT22;520;50.932;6.962;2023-05-02T08:15:26;14.00;99.90
1063;DHT22;520;50.932;6.962;2023-05-02T08:18:00;13.80;99.90
1063;DHT22;520;50.932;6.962;2023-05-02T08:20:29;13.70;99.90
1063;DHT22;520;50.932;6.962;2023-05-02T08:22:58;13.90;99.90
1063;DHT22;520;50.932;6.962;2023-05-02T08:25:28;14.20;99.90
1063;DHT22;520;50.932;6.962;2023-05-02T08:28:02;13.90;99.90
1063;DHT22;520;50.932;6.962;2023-05-02T08:30:38;14.20;99.90
1063;DHT22;520;50.932;6.962;2023-05-02T08:33:26;14.30;99.80
1063;DHT22;520;50.932;6.962;2023-05-02T08:36:16;14.20;99.40
1063;DHT22;520;50.932;6.962;2023-05-02T08:38:49;14.10;99.60
1063;DHT22;520;50.932;6.962;2023-05-02T08:41:23;14.00;99.90
1063;DHT22;520;50.932;6.962;2023-05-02T08:44:01;14.00;99.90
1063;DHT22;520;50.932;6.962;2023-05-02T08:46:41;13.90;99.90
1063;DHT22;520;50.932;6.962;2023-05-02T08:49:12;14.10;99.90
1063;DHT22;520;50.932;6.962;2023-05-02T08:51:46;14.40;99.40
1063;DHT22;520;50.932;6.962;2023-05-02T08:54:23;14.20;98.50
1063;DHT22;520;50.932;6.962;2023-05-02T08:56:56;14.20;98.10
1063;DHT22;520;50.932;6.962;2023-05-02T08:59:34;14.00;98.20
1063;DHT22;520;50.932;6.962;2023-05-02T09:05:07;13.80;98.30
1063;DHT22;520;50.932;6.962;2023-05-02T09:08:06;13.90;98.40
1063;DHT22;520;50.932;6.962;2023-05-02T09:10:49;13.90;98.10
1063;DHT22;520;50.932;6.962;2023-05-02T09:16:16;14.20;97.60
1063;DHT22;520;50.932;6.962;2023-05-02T09:18:55;14.30;97.30
1063;DHT22;520;50.932;6.962;2023-05-02T09:21:39;14.50;96.40
1063;DHT22;520;50.932;6.962;2023-05-02T09:24:20;14.50;95.00
1063;DHT22;520;50.932;6.962;2023-05-02T09:27:15;14.50;95.00
1063;DHT22;520;50.932;6.962;2023-05-02T09:30:22;14.20;95.10
1063;DHT22;520;50.932;6.962;2023-05-02T09:33:02;14.40;94.80
1063;DHT22;520;50.932;6.962;2023-05-02T09:35:35;14.30;94.60
1063;DHT22;520;50.932;6.962;2023-05-02T09:38:39;14.30;94.50
1063;DHT22;520;50.932;6.962;2023-05-02T09:41:44;14.10;94.70
1063;DHT22;520;50.932;6.962;2023-05-02T09:44:39;13.90;94.80
1063;DHT22;520;50.932;6.962;2023-05-02T09:47:38;14.20;94.70
1063;DHT22;520;50.932;6.962;2023-05-02T09:50:44;14.40;94.50
1063;DHT22;520;50.932;6.962;2023-05-02T09:53:25;14.60;94.60
1063;DHT22;520;50.932;6.962;2023-05-02T09:57:10;14.90;93.70
1063;DHT22;520;50.932;6.962;2023-05-02T10:00:14;15.00;93.60
1063;DHT22;520;50.932;6.962;2023-05-02T10:02:50;14.70;93.50
1063;DHT22;520;50.932;6.962;2023-05-02T10:05:28;14.80;93.50
1063;DHT22;520;50.932;6.962;2023-05-02T10:07:59;14.50;93.40
1063;DHT22;520;50.932;6.962;2023-05-02T10:10:55;14.60;93.90
1063;DHT22;520;50.932;6.962;2023-05-02T10:13:32;14.60;93.00
1063;DHT22;520;50.932;6.962;2023-05-02T10:16:11;14.60;93.30
1063;DHT22;520;50.932;6.962;2023-05-02T10:19:01;14.60;93.10
1063;DHT22;520;50.932;6.962;2023-05-02T10:21:42;14.60;93.10
1063;DHT22;520;50.932;6.962;2023-05-02T10:24:20;14.70;92.90
1063;DHT22;520;50.932;6.962;2023-05-02T10:26:47;14.80;92.20
1063;DHT22;520;50.932;6.962;2023-05-02T10:29:22;15.20;91.50
1063;DHT22;520;50.932;6.962;2023-05-02T10:32:13;15.00;91.00
1063;DHT22;520;50.932;6.962;2023-05-02T10:35:02;14.80;91.50
1063;DHT22;520;50.932;6.962;2023-05-02T10:37:45;14.80;91.40
1063;DHT22;520;50.932;6.962;2023-05-02T10:40:24;14.90;91.10
1063;DHT22;520;50.932;6.962;2023-05-02T10:42:59;14.90;90.60
1063;DHT22;520;50.932;6.962;2023-05-02T10:45:39;14.90;90.60
1063;DHT22;520;50.932;6.962;2023-05-02T10:48:31;15.10;90.30
1063;DHT22;520;50.932;6.962;2023-05-02T10:51:04;15.30;90.10
1063;DHT22;520;50.932;6.962;2023-05-02T10:53:42;15.20;89.80
1063;DHT22;520;50.932;6.962;2023-05-02T10:56:23;14.70;90.60
1063;DHT22;520;50.932;6.962;2023-05-02T10:59:25;15.10;90.80
1063;DHT22;520;50.932;6.962;2023-05-02T11:05:05;14.90;90.30
1063;DHT22;520;50.932;6.962;2023-05-02T11:07:41;14.70;90.90
1063;DHT22;520;50.932;6.962;2023-05-02T11:10:42;14.90;90.90
1063;DHT22;520;50.932;6.962;2023-05-02T11:13:16;15.10;88.70
1063;DHT22;520;50.932;6.962;2023-05-02T11:16:11;14.80;89.20
1063;DHT22;520;50.932;6.962;2023-05-02T11:22:43;14.90;88.80
1063;DHT22;520;50.932;6.962;2023-05-02T11:25:37;14.90;88.00
1063;DHT22;520;50.932;6.962;2023-05-02T11:28:46;15.30;86.50
1063;DHT22;520;50.932;6.962;2023-05-02T11:34:14;15.40;85.40
1063;DHT22;520;50.932;6.962;2023-05-02T11:37:24;15.20;86.30
1063;DHT22;520;50.932;6.962;2023-05-02T11:40:20;15.10;87.00
1063;DHT22;520;50.932;6.962;2023-05-02T11:44:05;15.30;86.70
1063;DHT22;520;50.932;6.962;2023-05-02T11:46:39;15.20;86.00
1063;DHT22;520;50.932;6.962;2023-05-02T11:51:56;15.50;85.10
1063;DHT22;520;50.932;6.962;2023-05-02T11:55:29;15.70;84.30
1063;DHT22;520;50.932;6.962;2023-05-02T11:58:19;15.60;82.90
1063;DHT22;520;50.932;6.962;2023-05-02T12:04:21;15.90;81.10
1063;DHT22;520;50.932;6.962;2023-05-02T12:07:39;16.20;80.50
1063;DHT22;520;50.932;6.962;2023-05-02T12:11:00;16.10;79.60
1063;DHT22;520;50.932;6.962;2023-05-02T12:13:48;16.20;78.00
1063;DHT22;520;50.932;6.962;2023-05-02T12:16:17;16.50;78.00
1063;DHT22;520;50.932;6.962;2023-05-02T12:18:46;16.70;76.30
1063;DHT22;520;50.932;6.962;2023-05-02T12:21:15;16.90;74.70
1063;DHT22;520;50.932;6.962;2023-05-02T12:23:43;16.80;73.20
1063;DHT22;520;50.932;6.962;2023-05-02T12:26:23;16.70;73.00
1063;DHT22;520;50.932;6.962;2023-05-02T12:28:55;16.60;73.80
1063;DHT22;520;50.932;6.962;2023-05-02T12:31:24;16.70;73.40
1063;DHT22;520;50.932;6.962;2023-05-02T12:33:53;16.50;74.00
1063;DHT22;520;50.932;6.962;2023-05-02T12:36:23;16.60;74.20
1063;DHT22;520;50.932;6.962;2023-05-02T12:38:54;16.70;73.40
1063;DHT22;520;50.932;6.962;2023-05-02T12:41:38;16.60;72.40
1063;DHT22;520;50.932;6.962;2023-05-02T12:44:09;17.10;70.30
1063;DHT22;520;50.932;6.962;2023-05-02T12:46:37;17.20;68.30
1063;DHT22;520;50.932;6.962;2023-05-02T12:49:23;17.00;68.40
1063;DHT22;520;50.932;6.962;2023-05-02T12:51:53;17.00;68.80
1063;DHT22;520;50.932;6.962;2023-05-02T12:54:23;16.80;68.30
1063;DHT22;520;50.932;6.962;2023-05-02T12:56:52;16.80;68.80
1063;DHT22;520;50.932;6.962;2023-05-02T12:59:27;16.70;69.10
1063;DHT22;520;50.932;6.962;2023-05-02T13:01:55;16.70;68.90
1063;DHT22;520;50.932;6.962;2023-05-02T13:04:36;16.60;69.80
1063;DHT22;520;50.932;6.962;2023-05-02T13:07:06;16.70;69.90
1063;DHT22;520;50.932;6.962;2023-05-02T13:09:33;17.00;68.50
1063;DHT22;520;50.932;6.962;2023-05-02T13:12:00;16.80;68.20
1063;DHT22;520;50.932;6.962;2023-05-02T13:14:31;16.90;66.80
1063;DHT22;520;50.932;6.962;2023-05-02T13:16:59;16.50;67.40
1063;DHT22;520;50.932;6.962;2023-05-02T13:19:27;16.50;67.50
1063;DHT22;520;50.932;6.962;2023-05-02T13:21:57;16.30;66.40
1063;DHT22;520;50.932;6.962;2023-05-02T13:24:25;16.00;67.30
1063;DHT22;520;50.932;6.962;2023-05-02T13:26:52;16.00;68.70
1063;DHT22;520;50.932;6.962;2023-05-02T13:29:19;16.40;67.60
1063;DHT22;520;50.932;6.962;2023-05-02T13:31:46;16.30;67.30
1063;DHT22;520;50.932;6.962;2023-05-02T13:34:13;16.20;67.90
1063;DHT22;520;50.932;6.962;2023-05-02T13:36:40;16.60;67.60
1063;DHT22;520;50.932;6.962;2023-05-02T13:39:11;16.70;67.10
1063;DHT22;520;50.932;6.962;2023-05-02T13:41:40;16.60;67.20
1063;DHT22;520;50.932;6.962;2023-05-02T13:44:07;16.60;66.60
1063;DHT22;520;50.932;6.962;2023-05-02T13:46:38;16.70;66.10
1063;DHT22;520;50.932;6.962;2023-05-02T13:49:05;17.10;64.70
1063;DHT22;520;50.932;6.962;2023-05-02T13:51:32;17.10;63.80
1063;DHT22;520;50.932;6.962;2023-05-02T13:54:00;17.00;63.70
1063;DHT22;520;50.932;6.962;2023-05-02T13:56:27;16.80;62.50
1063;DHT22;520;50.932;6.962;2023-05-02T13:58:55;16.60;62.80
1063;DHT22;520;50.932;6.962;2023-05-02T14:01:23;17.00;63.40
1063;DHT22;520;50.932;6.962;2023-05-02T14:03:53;17.60;62.10
1063;DHT22;520;50.932;6.962;2023-05-02T14:06:21;17.70;61.00
1063;DHT22;520;50.932;6.962;2023-05-02T14:08:48;17.80;59.70
1063;DHT22;520;50.932;6.962;2023-05-02T14:11:19;17.40;60.10
1063;DHT22;520;50.932;6.962;2023-05-02T14:13:47;17.60;59.70
1063;DHT22;520;50.932;6.962;2023-05-02T14:16:14;17.50;59.50
1063;DHT22;520;50.932;6.962;2023-05-02T14:18:41;17.30;59.90
1063;DHT22;520;50.932;6.962;2023-05-02T14:21:09;17.30;60.40
1063;DHT22;520;50.932;6.962;2023-05-02T14:23:37;17.70;58.80
1063;DHT22;520;50.932;6.962;2023-05-02T14:26:04;18.00;57.50
1063;DHT22;520;50.932;6.962;2023-05-02T14:28:32;17.80;57.60
1063;DHT22;520;50.932;6.962;2023-05-02T14:30:59;17.80;57.70
1063;DHT22;520;50.932;6.962;2023-05-02T14:33:26;17.60;57.90
1063;DHT22;520;50.932;6.962;2023-05-02T14:35:54;17.50;57.80
1063;DHT22;520;50.932;6.962;2023-05-02T14:38:21;17.60;56.50
1063;DHT22;520;50.932;6.962;2023-05-02T14:40:48;17.60;56.50
1063;DHT22;520;50.932;6.962;2023-05-02T14:43:16;17.40;56.40
1063;DHT22;520;50.932;6.962;2023-05-02T14:45:43;17.20;56.30
1063;DHT22;520;50.932;6.962;2023-05-02T14:48:10;16.90;56.90
1063;DHT22;520;50.932;6.962;2023-05-02T14:50:40;16.70;57.40
1063;DHT22;520;50.932;6.962;2023-05-02T14:53:08;16.70;57.50
1063;DHT22;520;50.932;6.962;2023-05-02T14:55:37;16.90;57.10
1063;DHT22;520;50.932;6.962;2023-05-02T14:58:08;17.10;56.50
1063;DHT22;520;50.932;6.962;2023-05-02T15:00:36;17.00;56.40
1063;DHT22;520;50.932;6.962;2023-05-02T15:03:05;17.10;57.20
1063;DHT22;520;50.932;6.962;2023-05-02T15:05:34;17.40;56.70
1063;DHT22;520;50.932;6.962;2023-05-02T15:08:02;17.40;55.10
1063;DHT22;520;50.932;6.962;2023-05-02T15:10:29;17.40;55.40
1063;DHT22;520;50.932;6.962;2023-05-02T15:12:59;17.20;55.30
1063;DHT22;520;50.932;6.962;2023-05-02T15:15:26;17.20;55.70
1063;DHT22;520;50.932;6.962;2023-05-02T15:17:54;17.20;55.60
1063;DHT22;520;50.932;6.962;2023-05-02T15:20:21;17.40;55.10
1063;DHT22;520;50.932;6.962;2023-05-02T15:22:48;17.30;55.00
1063;DHT22;520;50.932;6.962;2023-05-02T15:25:16;17.00;55.80
1063;DHT22;520;50.932;6.962;2023-05-02T15:27:43;16.80;56.00
1063;DHT22;520;50.932;6.962;2023-05-02T15:30:10;16.70;56.00
1063;DHT22;520;50.932;6.962;2023-05-02T15:32:37;16.90;55.60
1063;DHT22;520;50.932;6.962;2023-05-02T15:35:05;17.10;54.70
1063;DHT22;520;50.932;6.962;2023-05-02T15:37:36;17.20;53.50
1063;DHT22;520;50.932;6.962;2023-05-02T15:40:48;17.30;53.60
1063;DHT22;520;50.932;6.962;2023-05-02T15:43:44;17.10;52.80
1063;DHT22;520;50.932;6.962;2023-05-02T15:46:27;17.00;53.60
1063;DHT22;520;50.932;6.962;2023-05-02T15:49:14;16.80;53.20
1063;DHT22;520;50.932;6.962;2023-05-02T15:52:20;16.90;52.60
1063;DHT22;520;50.932;6.962;2023-05-02T15:54:56;16.60;52.20
1063;DHT22;520;50.932;6.962;2023-05-02T15:57:29;16.60;53.20
1063;DHT22;520;50.932;6.962;2023-05-02T16:00:08;16.50;53.50
1063;DHT22;520;50.932;6.962;2023-05-02T16:03:03;16.60;53.70
1063;DHT22;520;50.932;6.962;2023-05-02T16:06:00;16.80;53.50
1063;DHT22;520;50.932;6.962;2023-05-02T16:08:42;16.90;53.00
1063;DHT22;520;50.932;6.962;2023-05-02T16:11:17;16.80;53.90
1063;DHT22;520;50.932;6.962;2023-05-02T16:14:06;16.60;53.10
1063;DHT22;520;50.932;6.962;2023-05-02T16:16:41;16.40;53.60
1063;DHT22;520;50.932;6.962;2023-05-02T16:22:09;16.70;54.00
1063;DHT22;520;50.932;6.962;2023-05-02T16:24:52;16.90;53.80
1063;DHT22;520;50.932;6.962;2023-05-02T16:27:27;16.80;53.40
1063;DHT22;520;50.932;6.962;2023-05-02T16:30:11;16.70;53.70
1063;DHT22;520;50.932;6.962;2023-05-02T16:32:43;16.60;53.80
1063;DHT22;520;50.932;6.962;2023-05-02T16:35:38;16.60;53.90
1063;DHT22;520;50.932;6.962;2023-05-02T16:38:22;16.30;54.50
1063;DHT22;520;50.932;6.962;2023-05-02T16:40:59;16.10;54.40
1063;DHT22;520;50.932;6.962;2023-05-02T16:43:33;16.10;54.70
1063;DHT22;520;50.932;6.962;2023-05-02T16:46:14;16.20;54.90
1063;DHT22;520;50.932;6.962;2023-05-02T16:48:41;16.10;54.60
1063;DHT22;520;50.932;6.962;2023-05-02T16:51:28;16.20;54.90
1063;DHT22;520;50.932;6.962;2023-05-02T16:54:04;16.30;54.90
1063;DHT22;520;50.932;6.962;2023-05-02T16:56:37;16.60;53.80
1063;DHT22;520;50.932;6.962;2023-05-02T17:02:08;16.30;54.00
1063;DHT22;520;50.932;6.962;2023-05-02T17:04:53;16.60;53.50
1063;DHT22;520;50.932;6.962;2023-05-02T17:07:22;16.60;53.10
1063;DHT22;520;50.932;6.962;2023-05-02T17:09:57;16.40;53.30
1063;DHT22;520;50.932;6.962;2023-05-02T17:12:33;16.20;53.50
1063;DHT22;520;50.932;6.962;2023-05-02T17:15:05;16.40;53.50
1063;DHT22;520;50.932;6.962;2023-05-02T17:17:38;16.20;53.40
1063;DHT22;520;50.932;6.962;2023-05-02T17:20:22;16.40;53.30
1063;DHT22;520;50.932;6.962;2023-05-02T17:23:14;16.10;53.30
1063;DHT22;520;50.932;6.962;2023-05-02T17:26:09;16.00;53.90
1063;DHT22;520;50.932;6.962;2023-05-02T17:29:03;16.00;54.10
1063;DHT22;520;50.932;6.962;2023-05-02T17:34:37;16.20;54.30
1063;DHT22;520;50.932;6.962;2023-05-02T17:37:18;16.20;54.20
1063;DHT22;520;50.932;6.962;2023-05-02T17:39:53;16.10;54.00
1063;DHT22;520;50.932;6.962;2023-05-02T17:46:45;16.40;53.60
1063;DHT22;520;50.932;6.962;2023-05-02T17:49:39;16.40;54.10
1063;DHT22;520;50.932;6.962;2023-05-02T17:52:49;15.90;53.80
1063;DHT22;520;50.932;6.962;2023-05-02T17:55:47;15.70;54.60
1063;DHT22;520;50.932;6.962;2023-05-02T17:58:38;15.90;54.90
1063;DHT22;520;50.932;6.962;2023-05-02T18:01:15;15.80;54.90